Time;durP1;ratioP1;P1;durP2;ratioP2;P2;SDS_P1;SDS_P2;PMS_P1;PMS_P2;Temp;Humidity;BMP_temperature;BMP_pressure;BME280_temperature;BME280_humidity;BME280_pressure;Samples;Min_cycle;Max_cycle;Signal;HPM_P1;HPM_P2
2022/03/05 00:02:16;;;;;;;33.45;15.65;;;;;;;;;;4991056;28;93313;-70
2022/03/05 00:04:42;;;;;;;36.92;15.43;;;;;;;;;;4991066;28;92475;-68
2022/03/05 00:07:10;;;;;;;32.08;16.48;;;;;;;;;;4996130;28;92411;-67
2022/03/05 00:09:37;;;;;;;35.97;15.73;;;;;;;;;;5007316;28;92689;-67
2022/03/05 00:12:03;;;;;;;33.30;15.05;;;;;;;;;;4991715;28;91688;-67
2022/03/05 00:14:29;;;;;;;31.83;15.88;;;;;;;;;;4992225;28;92348;-67
2022/03/05 00:16:55;;;;;;;34.60;14.82;;;;;;;;;;4991044;28;93080;-68
2022/03/05 00:19:22;;;;;;;31.13;14.98;;;;;;;;;;4993342;28;95245;-68
2022/03/05 00:21:48;;;;;;;28.77;15.25;;;;;;;;;;4992395;28;93245;-67
2022/03/05 00:24:14;;;;;;;29.45;16.17;;;;;;;;;;5000594;28;92516;-67
2022/03/05 00:26:41;;;;;;;29.83;15.25;;;;;;;;;;4985855;28;93010;-67
2022/03/05 00:29:07;;;;;;;38.47;16.13;;;;;;;;;;5004826;28;94399;-67
2022/03/05 00:31:34;;;;;;;41.15;15.32;;;;;;;;;;4996022;28;92658;-67
2022/03/05 00:34:00;;;;;;;32.72;16.23;;;;;;;;;;4996757;28;94246;-69
2022/03/05 00:36:26;;;;;;;35.85;17.13;;;;;;;;;;5010173;28;92565;-67
2022/03/05 00:38:52;;;;;;;32.22;15.23;;;;;;;;;;5002016;28;92376;-68
2022/03/05 00:41:19;;;;;;;34.22;15.88;;;;;;;;;;5010912;28;93360;-67
2022/03/05 00:43:45;;;;;;;27.85;14.77;;;;;;;;;;4994403;28;94886;-68
2022/03/05 00:46:11;;;;;;;34.63;15.68;;;;;;;;;;4991216;28;95566;-68
2022/03/05 00:48:38;;;;;;;32.45;15.10;;;;;;;;;;4993848;28;93535;-67
2022/03/05 00:51:04;;;;;;;29.10;14.75;;;;;;;;;;4991018;28;92435;-68
2022/03/05 00:53:31;;;;;;;33.60;15.10;;;;;;;;;;4998795;28;94052;-68
2022/03/05 00:55:57;;;;;;;33.70;15.43;;;;;;;;;;4994910;28;93394;-68
2022/03/05 00:58:23;;;;;;;31.63;15.68;;;;;;;;;;4992206;28;92378;-68
2022/03/05 01:00:52;;;;;;;31.08;15.23;;;;;;;;;;5005699;28;93100;-68
2022/03/05 01:03:19;;;;;;;30.90;14.35;;;;;;;;;;4999397;28;92606;-68
2022/03/05 01:05:45;;;;;;;36.28;15.43;;;;;;;;;;4994512;28;93263;-68
2022/03/05 01:08:12;;;;;;;32.72;16.65;;;;;;;;;;4993115;28;95804;-68
2022/03/05 01:10:38;;;;;;;33.40;15.73;;;;;;;;;;4990608;28;92399;-68
2022/03/05 01:13:04;;;;;;;33.72;14.98;;;;;;;;;;5004955;28;93249;-69
2022/03/05 01:15:31;;;;;;;33.13;15.27;;;;;;;;;;4997805;28;93916;-68
2022/03/05 01:17:58;;;;;;;27.48;13.95;;;;;;;;;;5001604;28;92512;-69
2022/03/05 01:20:24;;;;;;;31.90;15.55;;;;;;;;;;5000514;28;92838;-67
2022/03/05 01:22:50;;;;;;;33.72;16.63;;;;;;;;;;5010797;28;93239;-68
2022/03/05 01:25:17;;;;;;;29.90;14.85;;;;;;;;;;4988557;28;93526;-68
2022/03/05 01:27:43;;;;;;;28.38;15.25;;;;;;;;;;4987167;28;93371;-68
2022/03/05 01:30:10;;;;;;;30.90;14.68;;;;;;;;;;4998005;28;92521;-68
2022/03/05 01:32:36;;;;;;;32.50;15.88;;;;;;;;;;4993071;28;95179;-68
2022/03/05 01:35:02;;;;;;;33.17;15.45;;;;;;;;;;4997372;28;93081;-68
2022/03/05 01:37:29;;;;;;;28.90;14.68;;;;;;;;;;4998941;28;92463;-67
2022/03/05 01:39:55;;;;;;;31.25;15.43;;;;;;;;;;5000234;28;92842;-68
2022/03/05 01:42:22;;;;;;;34.13;16.58;;;;;;;;;;5009356;28;93412;-67
2022/03/05 01:44:48;;;;;;;33.78;15.85;;;;;;;;;;5007158;28;92887;-67
2022/03/05 01:47:14;;;;;;;32.05;16.05;;;;;;;;;;4996553;28;92780;-68
2022/03/05 01:49:41;;;;;;;28.58;15.18;;;;;;;;;;4994573;28;93017;-68
2022/03/05 01:52:07;;;;;;;30.27;14.70;;;;;;;;;;4976345;28;92628;-68
2022/03/05 01:54:33;;;;;;;29.73;15.70;;;;;;;;;;4993895;28;93511;-68
2022/03/05 01:57:01;;;;;;;28.65;14.80;;;;;;;;;;5007418;28;94875;-68
2022/03/05 01:59:27;;;;;;;34.20;15.98;;;;;;;;;;5005848;28;95936;-68
2022/03/05 02:01:54;;;;;;;34.95;15.77;;;;;;;;;;5008817;28;93541;-68
2022/03/05 02:04:20;;;;;;;35.30;15.73;;;;;;;;;;4995858;28;92689;-68
2022/03/05 02:06:47;;;;;;;32.05;15.18;;;;;;;;;;5014097;28;93406;-68
2022/03/05 02:09:13;;;;;;;35.47;15.75;;;;;;;;;;4999456;28;92372;-67
2022/03/05 02:11:39;;;;;;;33.33;15.68;;;;;;;;;;5009376;28;94200;-68
2022/03/05 02:14:06;;;;;;;34.70;15.45;;;;;;;;;;4999495;28;92512;-68
2022/03/05 02:16:32;;;;;;;29.55;15.75;;;;;;;;;;5005131;28;94207;-67
2022/03/05 02:18:59;;;;;;;30.10;15.57;;;;;;;;;;5007220;28;93087;-68
2022/03/05 02:21:26;;;;;;;31.95;15.13;;;;;;;;;;5003091;28;96849;-68
2022/03/05 02:23:52;;;;;;;33.67;15.48;;;;;;;;;;5001460;28;92682;-68
2022/03/05 02:26:19;;;;;;;30.58;14.93;;;;;;;;;;5001001;28;93051;-68
2022/03/05 02:28:45;;;;;;;34.00;15.40;;;;;;;;;;4995388;28;93419;-68
2022/03/05 02:31:11;;;;;;;33.42;15.07;;;;;;;;;;5003024;28;93322;-68
2022/03/05 02:33:37;;;;;;;37.92;16.88;;;;;;;;;;4994473;28;93234;-68
2022/03/05 02:36:04;;;;;;;30.40;15.30;;;;;;;;;;4996196;28;92822;-68
2022/03/05 02:38:30;;;;;;;33.03;14.93;;;;;;;;;;4997755;28;91869;-68
2022/03/05 02:40:57;;;;;;;32.50;15.60;;;;;;;;;;4994156;28;93912;-68
2022/03/05 02:43:23;;;;;;;31.83;15.07;;;;;;;;;;4993523;28;93251;-68
2022/03/05 02:45:49;;;;;;;31.05;15.48;;;;;;;;;;4995879;28;94872;-68
2022/03/05 02:48:17;;;;;;;41.83;15.88;;;;;;;;;;5014923;28;93547;-67
2022/03/05 02:50:44;;;;;;;39.08;16.67;;;;;;;;;;4998121;28;94076;-68
2022/03/05 02:53:10;;;;;;;36.13;16.10;;;;;;;;;;4993326;28;93432;-68
2022/03/05 02:55:38;;;;;;;30.58;15.23;;;;;;;;;;4992481;28;92814;-67
2022/03/05 02:58:05;;;;;;;32.97;15.40;;;;;;;;;;4998210;28;96243;-68
2022/03/05 03:00:31;;;;;;;33.45;15.23;;;;;;;;;;4992508;28;93503;-67
2022/03/05 03:02:58;;;;;;;31.80;15.32;;;;;;;;;;4997256;28;91703;-68
2022/03/05 03:05:25;;;;;;;31.80;16.45;;;;;;;;;;4992790;28;92458;-67
2022/03/05 03:07:52;;;;;;;31.70;15.38;;;;;;;;;;5002449;28;93458;-67
2022/03/05 03:10:18;;;;;;;32.85;16.65;;;;;;;;;;4999432;28;95533;-68
2022/03/05 03:12:44;;;;;;;34.78;15.82;;;;;;;;;;4992517;28;93516;-70
2022/03/05 03:15:12;;;;;;;38.72;17.20;;;;;;;;;;4992904;28;92439;-67
2022/03/05 03:17:48;;;;;;;33.70;16.15;;;;;;;;;;5005993;28;92984;-68
2022/03/05 03:20:16;;;;;;;32.17;15.32;;;;;;;;;;5004859;28;93367;-71
2022/03/05 03:22:43;;;;;;;35.88;16.15;;;;;;;;;;4991612;28;92447;-70
2022/03/05 03:25:10;;;;;;;39.13;16.15;;;;;;;;;;4995321;28;93290;-71
2022/03/05 03:27:37;;;;;;;33.80;15.85;;;;;;;;;;4993376;28;91719;-68
2022/03/05 03:30:04;;;;;;;38.78;17.42;;;;;;;;;;4998387;28;92435;-68
2022/03/05 03:32:30;;;;;;;34.80;15.43;;;;;;;;;;4997772;28;93553;-68
2022/03/05 03:34:57;;;;;;;34.15;16.45;;;;;;;;;;4990510;28;95055;-68
2022/03/05 03:37:28;;;;;;;34.60;16.65;;;;;;;;;;4991996;28;95918;-68
2022/03/05 03:39:55;;;;;;;35.55;16.63;;;;;;;;;;4980634;28;93482;-69
2022/03/05 03:42:22;;;;;;;34.67;16.00;;;;;;;;;;5006787;28;92460;-69
2022/03/05 03:44:48;;;;;;;35.80;15.93;;;;;;;;;;4992022;28;92384;-69
2022/03/05 03:47:15;;;;;;;35.78;17.35;;;;;;;;;;4993009;28;93518;-69
2022/03/05 03:49:41;;;;;;;35.15;15.50;;;;;;;;;;4991378;28;92854;-69
2022/03/05 03:52:07;;;;;;;34.10;16.55;;;;;;;;;;5002408;28;93912;-69
2022/03/05 03:54:34;;;;;;;34.20;16.10;;;;;;;;;;5002087;28;93929;-69
2022/03/05 03:57:01;;;;;;;38.42;17.95;;;;;;;;;;5001536;28;93383;-70
2022/03/05 03:59:28;;;;;;;39.20;16.92;;;;;;;;;;4993767;28;94942;-69
2022/03/05 04:01:54;;;;;;;32.42;16.35;;;;;;;;;;4992821;28;92727;-69
2022/03/05 04:04:21;;;;;;;37.90;16.73;;;;;;;;;;4990898;28;94221;-70
2022/03/05 04:09:32;;;;;;;35.88;16.45;;;;;;;;;;4991868;28;92495;-70
2022/03/05 04:11:58;;;;;;;38.40;15.93;;;;;;;;;;4992261;28;94611;-69
2022/03/05 04:14:24;;;;;;;34.60;16.10;;;;;;;;;;4993747;28;93317;-70
2022/03/05 04:16:51;;;;;;;33.38;16.02;;;;;;;;;;4999021;28;91668;-69
2022/03/05 04:19:17;;;;;;;32.10;14.63;;;;;;;;;;4991971;28;93479;-69
2022/03/05 04:21:43;;;;;;;35.05;16.23;;;;;;;;;;4991143;28;92457;-69
2022/03/05 04:24:09;;;;;;;34.35;16.65;;;;;;;;;;4988369;28;96000;-69
2022/03/05 04:26:36;;;;;;;39.63;16.38;;;;;;;;;;4987192;28;93338;-69
2022/03/05 04:29:02;;;;;;;33.42;17.05;;;;;;;;;;4996654;28;92524;-69
2022/03/05 04:31:28;;;;;;;33.97;16.92;;;;;;;;;;5001781;28;93237;-69
2022/03/05 04:33:55;;;;;;;40.42;17.70;;;;;;;;;;4999063;28;94517;-69
2022/03/05 04:36:21;;;;;;;36.88;17.20;;;;;;;;;;4995254;28;92574;-69
2022/03/05 04:38:47;;;;;;;34.92;17.25;;;;;;;;;;5003575;28;93030;-72
2022/03/05 04:41:14;;;;;;;39.60;17.88;;;;;;;;;;4994794;28;91892;-69
2022/03/05 04:43:40;;;;;;;45.10;18.02;;;;;;;;;;4995663;28;93309;-70
2022/03/05 04:46:06;;;;;;;37.08;18.17;;;;;;;;;;4994807;28;94489;-69
2022/03/05 04:48:32;;;;;;;34.47;16.77;;;;;;;;;;4996013;28;94900;-69
2022/03/05 04:50:59;;;;;;;39.75;17.13;;;;;;;;;;5006669;28;95509;-69
2022/03/05 04:53:25;;;;;;;44.95;16.75;;;;;;;;;;5004419;28;94524;-69
2022/03/05 04:55:51;;;;;;;33.63;16.35;;;;;;;;;;4994800;28;92438;-69
2022/03/05 04:58:18;;;;;;;42.45;19.08;;;;;;;;;;5008097;28;93009;-69
2022/03/05 05:00:44;;;;;;;40.40;16.95;;;;;;;;;;4997875;28;92915;-69
2022/03/05 05:03:10;;;;;;;41.20;17.77;;;;;;;;;;4997879;28;93182;-69
2022/03/05 05:05:37;;;;;;;40.83;17.98;;;;;;;;;;4995167;28;93721;-69
2022/03/05 05:08:03;;;;;;;37.15;17.40;;;;;;;;;;4997700;28;92386;-70
2022/03/05 05:10:30;;;;;;;40.00;19.00;;;;;;;;;;4995705;28;94235;-69
2022/03/05 05:12:56;;;;;;;40.55;19.48;;;;;;;;;;4995380;28;95835;-70
2022/03/05 05:15:23;;;;;;;45.00;18.67;;;;;;;;;;4994862;28;94351;-70
2022/03/05 05:17:49;;;;;;;38.22;17.08;;;;;;;;;;4994303;28;93107;-72
2022/03/05 05:20:15;;;;;;;47.50;19.98;;;;;;;;;;4997508;28;93441;-69
2022/03/05 05:22:42;;;;;;;45.80;19.15;;;;;;;;;;4994882;28;93260;-70
2022/03/05 05:25:08;;;;;;;39.78;17.13;;;;;;;;;;4994955;28;94537;-69
2022/03/05 05:27:35;;;;;;;44.38;19.40;;;;;;;;;;5003445;28;92790;-69
2022/03/05 05:30:02;;;;;;;43.90;18.60;;;;;;;;;;5006667;28;93874;-69
2022/03/05 05:32:28;;;;;;;43.60;18.88;;;;;;;;;;4994564;28;93296;-69
2022/03/05 05:34:54;;;;;;;37.17;18.00;;;;;;;;;;4993498;28;92461;-69
2022/03/05 05:37:20;;;;;;;42.58;19.08;;;;;;;;;;4993943;28;94807;-69
2022/03/05 05:39:47;;;;;;;45.28;18.88;;;;;;;;;;5007920;28;93420;-69
2022/03/05 05:42:13;;;;;;;39.28;18.02;;;;;;;;;;5000185;28;92473;-70
2022/03/05 05:44:40;;;;;;;49.33;18.83;;;;;;;;;;4993973;28;93319;-69
2022/03/05 05:47:07;;;;;;;46.95;20.35;;;;;;;;;;4993717;28;92514;-69
2022/03/05 05:49:33;;;;;;;42.88;18.95;;;;;;;;;;5008757;28;94236;-69
2022/03/05 05:52:00;;;;;;;45.75;18.92;;;;;;;;;;5002981;28;93389;-69
2022/03/05 05:54:27;;;;;;;47.65;20.75;;;;;;;;;;4998170;28;91912;-69
2022/03/05 05:56:53;;;;;;;47.85;19.70;;;;;;;;;;4993684;28;92400;-70
2022/03/05 05:59:19;;;;;;;49.63;19.38;;;;;;;;;;4994369;28;93508;-69
2022/03/05 06:01:46;;;;;;;45.03;19.25;;;;;;;;;;4995556;28;95399;-70
2022/03/05 06:04:12;;;;;;;46.45;20.10;;;;;;;;;;5010976;28;95587;-69
2022/03/05 06:06:39;;;;;;;46.53;20.45;;;;;;;;;;4993892;28;92842;-71
2022/03/05 06:09:05;;;;;;;51.15;21.27;;;;;;;;;;5006224;28;93199;-69
2022/03/05 06:11:31;;;;;;;46.13;20.48;;;;;;;;;;4995537;28;93099;-69
2022/03/05 06:13:58;;;;;;;45.67;19.50;;;;;;;;;;4996890;28;92924;-69
2022/03/05 06:16:24;;;;;;;45.50;19.30;;;;;;;;;;4994013;28;92456;-70
2022/03/05 06:18:51;;;;;;;43.25;20.00;;;;;;;;;;5002229;28;92748;-69
2022/03/05 06:21:17;;;;;;;39.33;17.58;;;;;;;;;;5003067;28;92588;-69
2022/03/05 06:23:43;;;;;;;42.25;17.55;;;;;;;;;;4993019;28;92886;-69
2022/03/05 06:26:10;;;;;;;40.78;19.20;;;;;;;;;;4992980;28;95926;-70
2022/03/05 06:28:36;;;;;;;50.20;20.65;;;;;;;;;;5001435;28;95430;-70
2022/03/05 06:31:02;;;;;;;44.53;20.15;;;;;;;;;;4996738;28;93430;-70
2022/03/05 06:33:29;;;;;;;43.25;19.85;;;;;;;;;;4997495;28;92481;-72
2022/03/05 06:35:55;;;;;;;43.83;18.40;;;;;;;;;;5004681;28;93241;-70
2022/03/05 06:38:21;;;;;;;53.90;20.75;;;;;;;;;;5001509;28;93216;-71
2022/03/05 06:40:48;;;;;;;49.67;18.88;;;;;;;;;;5004699;28;92751;-70
2022/03/05 06:43:15;;;;;;;41.10;18.48;;;;;;;;;;4996252;28;93169;-70
2022/03/05 06:45:42;;;;;;;45.45;20.60;;;;;;;;;;5006695;28;93727;-70
2022/03/05 06:48:09;;;;;;;39.45;17.63;;;;;;;;;;4995728;28;92430;-70
2022/03/05 06:50:35;;;;;;;44.55;20.08;;;;;;;;;;5008896;28;95653;-70
2022/03/05 06:53:02;;;;;;;49.92;19.33;;;;;;;;;;4996456;28;93087;-69
2022/03/05 06:55:29;;;;;;;48.85;20.02;;;;;;;;;;5012376;28;94148;-69
2022/03/05 06:57:55;;;;;;;50.78;20.23;;;;;;;;;;5001358;28;93407;-69
2022/03/05 07:00:22;;;;;;;46.83;19.48;;;;;;;;;;4994010;28;92529;-69
2022/03/05 07:02:48;;;;;;;48.75;19.75;;;;;;;;;;5004177;28;93268;-70
2022/03/05 07:05:15;;;;;;;46.22;20.13;;;;;;;;;;5011150;28;93933;-70
2022/03/05 07:07:42;;;;;;;45.47;19.45;;;;;;;;;;5010094;28;92735;-70
2022/03/05 07:10:09;;;;;;;48.13;20.63;;;;;;;;;;5008177;28;93649;-69
2022/03/05 07:12:35;;;;;;;51.08;20.70;;;;;;;;;;4998670;28;92804;-72
2022/03/05 07:15:03;;;;;;;54.38;20.77;;;;;;;;;;4999669;28;94806;-70
2022/03/05 07:17:29;;;;;;;51.13;20.65;;;;;;;;;;4992211;28;93345;-70
2022/03/05 07:19:55;;;;;;;54.55;21.33;;;;;;;;;;5010692;28;92509;-70
2022/03/05 07:22:22;;;;;;;51.50;22.23;;;;;;;;;;5011243;28;93011;-70
2022/03/05 07:24:49;;;;;;;51.80;20.75;;;;;;;;;;4998498;28;94471;-70
2022/03/05 07:27:16;;;;;;;49.42;22.10;;;;;;;;;;4993147;28;92607;-69
2022/03/05 07:29:43;;;;;;;67.68;22.38;;;;;;;;;;4995929;28;93212;-69
2022/03/05 07:32:10;;;;;;;50.85;20.60;;;;;;;;;;4992752;28;91668;-69
2022/03/05 07:34:37;;;;;;;55.08;22.00;;;;;;;;;;5002996;28;92934;-69
2022/03/05 07:37:03;;;;;;;53.10;21.45;;;;;;;;;;5008379;28;92373;-68
2022/03/05 07:39:29;;;;;;;56.78;22.35;;;;;;;;;;5005839;28;94855;-68
2022/03/05 07:41:56;;;;;;;48.50;21.58;;;;;;;;;;5010303;28;95581;-68
2022/03/05 07:44:22;;;;;;;53.20;21.95;;;;;;;;;;5001580;28;93136;-68
2022/03/05 07:46:48;;;;;;;55.20;22.38;;;;;;;;;;4991690;28;93791;-69
2022/03/05 07:49:15;;;;;;;56.83;21.30;;;;;;;;;;4993555;28;93720;-70
2022/03/05 07:51:41;;;;;;;53.95;22.23;;;;;;;;;;4996999;28;93286;-71
2022/03/05 07:54:07;;;;;;;57.40;22.67;;;;;;;;;;5009296;28;93013;-68
2022/03/05 07:56:34;;;;;;;62.13;22.27;;;;;;;;;;4991974;28;92704;-68
2022/03/05 07:59:00;;;;;;;54.60;21.92;;;;;;;;;;4991346;28;92392;-68
2022/03/05 08:01:26;;;;;;;47.50;21.63;;;;;;;;;;4981486;28;93014;-67
2022/03/05 08:03:53;;;;;;;61.33;23.20;;;;;;;;;;4993589;28;94886;-68
2022/03/05 08:06:20;;;;;;;53.08;23.23;;;;;;;;;;4992605;28;92461;-67
2022/03/05 08:08:46;;;;;;;53.80;22.13;;;;;;;;;;4990950;28;93227;-68
2022/03/05 08:11:12;;;;;;;57.30;21.48;;;;;;;;;;4992212;28;93271;-67
2022/03/05 08:13:39;;;;;;;54.83;21.58;;;;;;;;;;4999249;28;92810;-67
2022/03/05 08:16:05;;;;;;;56.95;22.35;;;;;;;;;;5001630;28;92425;-67
2022/03/05 08:18:31;;;;;;;52.13;22.27;;;;;;;;;;4992084;28;92409;-68
2022/03/05 08:20:58;;;;;;;52.95;22.55;;;;;;;;;;4993552;28;94375;-67
2022/03/05 08:23:24;;;;;;;52.75;23.80;;;;;;;;;;5009339;28;93499;-68
2022/03/05 08:25:50;;;;;;;57.00;23.70;;;;;;;;;;5011501;28;92364;-68
2022/03/05 08:28:18;;;;;;;57.33;23.20;;;;;;;;;;5010129;28;94815;-68
2022/03/05 08:30:44;;;;;;;53.53;22.20;;;;;;;;;;5011002;28;93474;-70
2022/03/05 08:33:10;;;;;;;61.50;23.55;;;;;;;;;;5009450;28;92939;-68
2022/03/05 08:35:36;;;;;;;52.13;22.80;;;;;;;;;;5014846;28;93199;-69
2022/03/05 08:38:03;;;;;;;55.53;22.90;;;;;;;;;;5011904;28;92503;-68
2022/03/05 08:40:29;;;;;;;53.38;23.48;;;;;;;;;;5010168;28;93078;-68
2022/03/05 08:42:55;;;;;;;54.97;23.17;;;;;;;;;;4993014;28;94013;-69
2022/03/05 08:45:27;;;;;;;59.95;24.33;;;;;;;;;;4992452;28;91673;-69
2022/03/05 08:47:53;;;;;;;57.63;23.67;;;;;;;;;;4992515;28;93564;-66
2022/03/05 08:50:20;;;;;;;62.85;25.02;;;;;;;;;;4992092;28;94500;-66
2022/03/05 08:52:46;;;;;;;66.18;25.27;;;;;;;;;;5008745;28;94954;-69
2022/03/05 08:55:13;;;;;;;57.30;23.98;;;;;;;;;;5012799;28;95617;-68
2022/03/05 08:57:40;;;;;;;56.55;24.75;;;;;;;;;;5011303;28;92380;-70
2022/03/05 09:00:08;;;;;;;60.90;24.92;;;;;;;;;;4993221;28;93327;-69
2022/03/05 09:02:35;;;;;;;55.55;24.20;;;;;;;;;;4995786;28;93141;-68
2022/03/05 09:05:02;;;;;;;56.67;26.00;;;;;;;;;;5001309;28;92637;-69
2022/03/05 09:07:29;;;;;;;68.00;25.88;;;;;;;;;;5011451;28;92990;-68
2022/03/05 09:09:55;;;;;;;54.45;23.92;;;;;;;;;;4998583;28;92666;-69
2022/03/05 09:12:21;;;;;;;51.83;22.30;;;;;;;;;;5011858;28;92397;-67
2022/03/05 09:14:48;;;;;;;54.50;22.33;;;;;;;;;;5007424;28;94260;-68
2022/03/05 09:17:15;;;;;;;57.40;24.90;;;;;;;;;;4992014;28;96860;-67
2022/03/05 09:19:42;;;;;;;58.15;23.98;;;;;;;;;;4992552;28;96639;-68
2022/03/05 09:22:10;;;;;;;52.22;23.40;;;;;;;;;;4994110;28;94448;-68
2022/03/05 09:24:37;;;;;;;53.92;24.02;;;;;;;;;;5005947;28;92396;-68
2022/03/05 09:27:04;;;;;;;54.10;24.17;;;;;;;;;;5012286;28;92863;-68
2022/03/05 09:29:30;;;;;;;64.82;25.15;;;;;;;;;;4994439;28;93245;-67
2022/03/05 09:31:57;;;;;;;52.78;23.90;;;;;;;;;;5002696;28;92973;-67
2022/03/05 09:34:23;;;;;;;53.88;23.13;;;;;;;;;;5001318;28;93215;-68
2022/03/05 09:36:49;;;;;;;53.83;23.77;;;;;;;;;;4994105;28;93581;-67
2022/03/05 09:39:15;;;;;;;56.95;24.98;;;;;;;;;;4997420;28;92435;-69
2022/03/05 09:41:42;;;;;;;53.70;22.42;;;;;;;;;;5001636;28;96112;-72
2022/03/05 09:44:08;;;;;;;59.10;24.90;;;;;;;;;;4994422;28;92498;-72
2022/03/05 09:46:35;;;;;;;51.88;23.35;;;;;;;;;;4995238;28;93227;-68
2022/03/05 09:49:02;;;;;;;45.50;22.75;;;;;;;;;;4994316;28;93247;-70
2022/03/05 09:51:29;;;;;;;50.50;24.40;;;;;;;;;;4994776;28;92511;-70
2022/03/05 09:53:56;;;;;;;52.00;24.63;;;;;;;;;;4993808;28;93179;-79
2022/03/05 09:56:22;;;;;;;51.42;26.25;;;;;;;;;;4993997;28;94358;-69
2022/03/05 09:58:50;;;;;;;53.55;26.85;;;;;;;;;;4994543;28;91662;-69
2022/03/05 10:01:18;;;;;;;43.83;25.45;;;;;;;;;;4997302;28;92631;-69
2022/03/05 10:03:45;;;;;;;41.90;25.20;;;;;;;;;;4990726;28;92593;-70
2022/03/05 10:06:26;;;;;;;53.60;28.80;;;;;;;;;;5012287;28;95263;-68
2022/03/05 10:08:52;;;;;;;44.55;28.23;;;;;;;;;;5007677;28;93751;-70
2022/03/05 10:11:19;;;;;;;42.95;28.95;;;;;;;;;;4985241;28;92863;-71
2022/03/05 10:13:45;;;;;;;46.58;29.75;;;;;;;;;;4993071;28;93766;-70
2022/03/05 10:16:22;;;;;;;40.60;26.92;;;;;;;;;;5003238;28;93275;-71
2022/03/05 10:18:49;;;;;;;44.70;28.48;;;;;;;;;;5010852;28;93972;-69
2022/03/05 10:21:16;;;;;;;44.35;27.23;;;;;;;;;;4995993;28;93846;-71
2022/03/05 10:23:47;;;;;;;77.00;28.83;;;;;;;;;;4987644;28;93317;-69
2022/03/05 10:26:15;;;;;;;41.25;27.30;;;;;;;;;;4990887;28;93392;-69
2022/03/05 10:28:41;;;;;;;61.30;29.17;;;;;;;;;;5011476;28;94566;-69
2022/03/05 10:31:11;;;;;;;84.68;32.47;;;;;;;;;;5006566;28;95377;-67
2022/03/05 10:33:45;;;;;;;44.50;28.63;;;;;;;;;;4994191;28;96710;-69
2022/03/05 10:36:20;;;;;;;41.72;28.45;;;;;;;;;;4993343;28;93491;-67
2022/03/05 10:38:46;;;;;;;41.67;28.02;;;;;;;;;;4993388;28;92448;-69
2022/03/05 10:41:14;;;;;;;52.92;28.63;;;;;;;;;;4993609;28;94154;-69
2022/03/05 10:43:41;;;;;;;38.45;27.27;;;;;;;;;;4993755;28;93209;-70
2022/03/05 10:46:07;;;;;;;39.25;27.33;;;;;;;;;;5001205;28;92564;-67
2022/03/05 10:48:36;;;;;;;37.35;27.33;;;;;;;;;;5013859;28;93773;-67
2022/03/05 10:51:04;;;;;;;97.30;30.58;;;;;;;;;;5013083;28;92778;-68
2022/03/05 10:53:40;;;;;;;39.55;28.13;;;;;;;;;;5013760;28;93270;-69
2022/03/05 10:56:26;;;;;;;36.53;25.92;;;;;;;;;;5005603;28;96397;-69
2022/03/05 10:59:02;;;;;;;45.10;28.30;;;;;;;;;;5011730;28;93257;-70
2022/03/05 11:01:29;;;;;;;38.47;27.13;;;;;;;;;;5013529;28;93179;-69
2022/03/05 11:03:56;;;;;;;37.83;25.67;;;;;;;;;;5010140;28;94040;-68
2022/03/05 11:06:23;;;;;;;39.85;27.25;;;;;;;;;;5016506;28;92473;-68
2022/03/05 11:08:49;;;;;;;41.53;27.50;;;;;;;;;;5011675;28;93210;-70
2022/03/05 11:11:17;;;;;;;40.95;27.17;;;;;;;;;;5012695;28;92461;-69
2022/03/05 11:13:43;;;;;;;43.63;28.75;;;;;;;;;;5011515;28;93215;-69
2022/03/05 11:16:10;;;;;;;51.95;27.60;;;;;;;;;;5002079;28;94477;-68
2022/03/05 11:18:36;;;;;;;41.53;27.17;;;;;;;;;;4996900;28;92526;-69
2022/03/05 11:21:03;;;;;;;42.33;26.05;;;;;;;;;;4988834;28;94965;-71
2022/03/05 11:23:31;;;;;;;46.15;28.65;;;;;;;;;;4992537;28;93642;-70
2022/03/05 11:25:58;;;;;;;43.45;27.58;;;;;;;;;;4993434;28;92762;-70
2022/03/05 11:28:24;;;;;;;45.25;28.85;;;;;;;;;;4996484;28;94251;-72
2022/03/05 11:30:53;;;;;;;41.40;27.67;;;;;;;;;;5008208;28;92431;-70
2022/03/05 11:33:21;;;;;;;42.85;28.35;;;;;;;;;;5004528;28;93038;-70
2022/03/05 11:35:48;;;;;;;40.38;24.08;;;;;;;;;;4992191;28;92532;-71
2022/03/05 11:38:53;;;;;;;38.65;25.02;;;;;;;;;;5009549;28;91860;-70
2022/03/05 11:41:19;;;;;;;43.38;27.70;;;;;;;;;;4961295;28;92805;-71
2022/03/05 11:43:47;;;;;;;40.22;26.67;;;;;;;;;;4969039;28;93627;-71
2022/03/05 11:46:20;;;;;;;49.28;28.10;;;;;;;;;;4957637;28;94944;-72
2022/03/05 11:49:03;;;;;;;39.40;23.92;;;;;;;;;;4950808;28;95503;-71
2022/03/05 11:51:30;;;;;;;43.88;27.60;;;;;;;;;;4955832;28;93195;-74
2022/03/05 11:54:04;;;;;;;43.15;28.15;;;;;;;;;;4950092;28;93322;-73
2022/03/05 11:56:31;;;;;;;45.83;29.10;;;;;;;;;;4950244;28;93467;-71
2022/03/05 11:58:57;;;;;;;48.30;26.92;;;;;;;;;;4954172;28;92617;-73
2022/03/05 12:01:37;;;;;;;42.80;27.88;;;;;;;;;;4951592;28;93408;-70
2022/03/05 12:04:23;;;;;;;43.67;28.00;;;;;;;;;;4952995;28;93672;-72
2022/03/05 12:06:51;;;;;;;41.35;27.48;;;;;;;;;;4959807;28;92575;-72
2022/03/05 12:09:37;;;;;;;39.78;27.45;;;;;;;;;;4955165;28;93251;-73
2022/03/05 12:12:05;;;;;;;38.20;26.15;;;;;;;;;;4976191;28;95592;-73
2022/03/05 12:14:50;;;;;;;46.95;27.60;;;;;;;;;;5003574;28;92473;-71
2022/03/05 12:17:20;;;;;;;42.10;28.17;;;;;;;;;;4992386;28;93510;-71
2022/03/05 12:19:46;;;;;;;43.15;28.52;;;;;;;;;;4992204;28;92446;-72
2022/03/05 12:22:13;;;;;;;39.75;29.05;;;;;;;;;;4992185;28;93292;-69
2022/03/05 12:24:40;;;;;;;42.78;28.65;;;;;;;;;;4994265;28;94479;-69
2022/03/05 12:27:09;;;;;;;42.88;28.98;;;;;;;;;;4991873;28;92557;-69
2022/03/05 12:29:35;;;;;;;44.08;27.98;;;;;;;;;;4992254;28;93485;-72
2022/03/05 12:32:01;;;;;;;44.88;28.98;;;;;;;;;;4992512;28;93110;-72
2022/03/05 12:34:34;;;;;;;39.75;27.17;;;;;;;;;;5011457;28;92502;-72
2022/03/05 12:37:01;;;;;;;46.05;28.10;;;;;;;;;;5002340;28;94863;-71
2022/03/05 12:39:28;;;;;;;46.45;27.58;;;;;;;;;;4999047;28;92956;-71
2022/03/05 12:41:55;;;;;;;42.92;26.85;;;;;;;;;;4997406;28;92644;-71
2022/03/05 12:44:21;;;;;;;41.03;27.60;;;;;;;;;;5012088;28;93513;-72
2022/03/05 12:46:48;;;;;;;41.60;28.75;;;;;;;;;;4994816;28;92711;-72
2022/03/05 12:49:15;;;;;;;39.53;26.88;;;;;;;;;;5001111;28;94470;-69
2022/03/05 12:51:41;;;;;;;36.35;25.80;;;;;;;;;;4992576;28;93195;-69
2022/03/05 12:54:08;;;;;;;40.78;28.10;;;;;;;;;;4999134;28;92305;-69
2022/03/05 12:56:35;;;;;;;38.30;27.38;;;;;;;;;;5009244;28;92989;-68
2022/03/05 12:59:01;;;;;;;39.40;27.05;;;;;;;;;;4977894;28;93532;-68
2022/03/05 13:01:28;;;;;;;37.65;27.00;;;;;;;;;;4990851;28;94897;-68
2022/03/05 13:03:56;;;;;;;36.08;25.83;;;;;;;;;;5000552;28;93629;-67
2022/03/05 13:06:22;;;;;;;40.67;26.70;;;;;;;;;;4994497;28;92834;-68
2022/03/05 13:08:49;;;;;;;40.65;26.60;;;;;;;;;;4992014;28;93124;-68
2022/03/05 13:11:19;;;;;;;40.35;26.40;;;;;;;;;;5014888;28;93678;-70
2022/03/05 13:13:52;;;;;;;39.75;26.80;;;;;;;;;;5012749;28;92420;-70
2022/03/05 13:16:22;;;;;;;39.92;26.80;;;;;;;;;;5003018;28;93447;-71
2022/03/05 13:18:56;;;;;;;34.67;25.75;;;;;;;;;;4996875;28;92931;-71
2022/03/05 13:21:23;;;;;;;33.97;25.55;;;;;;;;;;5002957;28;93188;-70
2022/03/05 13:23:49;;;;;;;39.63;27.27;;;;;;;;;;5002991;28;93361;-71
2022/03/05 13:26:15;;;;;;;40.30;27.48;;;;;;;;;;5008117;28;94832;-70
2022/03/05 13:28:42;;;;;;;42.10;26.77;;;;;;;;;;5011482;28;95582;-70
2022/03/05 13:31:08;;;;;;;44.03;28.92;;;;;;;;;;5008662;28;92693;-70
2022/03/05 13:33:43;;;;;;;41.30;27.38;;;;;;;;;;4992945;28;92443;-71
2022/03/05 13:36:11;;;;;;;44.38;27.02;;;;;;;;;;4994593;28;93408;-70
2022/03/05 13:38:38;;;;;;;43.15;28.48;;;;;;;;;;4994540;28;93777;-70
2022/03/05 13:41:04;;;;;;;41.55;25.42;;;;;;;;;;4997402;28;92448;-70
2022/03/05 13:43:33;;;;;;;39.70;27.83;;;;;;;;;;4994531;28;93367;-70
2022/03/05 13:46:00;;;;;;;39.78;26.48;;;;;;;;;;4995714;28;93380;-69
2022/03/05 13:48:26;;;;;;;44.47;28.38;;;;;;;;;;4994399;28;92788;-70
2022/03/05 13:50:53;;;;;;;40.63;27.50;;;;;;;;;;4992355;28;97036;-72
2022/03/05 13:53:21;;;;;;;41.63;26.05;;;;;;;;;;5008252;28;92943;-70
2022/03/05 13:56:00;;;;;;;42.20;27.73;;;;;;;;;;5013898;28;93412;-69
2022/03/05 13:58:29;;;;;;;47.63;28.90;;;;;;;;;;5004878;28;93540;-69
2022/03/05 14:00:55;;;;;;;48.63;27.60;;;;;;;;;;4993668;28;92707;-69
2022/03/05 14:03:22;;;;;;;47.22;26.80;;;;;;;;;;5001111;28;94207;-69
2022/03/05 14:05:48;;;;;;;41.42;27.00;;;;;;;;;;5001866;28;92577;-69
2022/03/05 14:08:14;;;;;;;42.17;25.15;;;;;;;;;;5014642;28;93243;-70
2022/03/05 14:10:41;;;;;;;41.20;25.75;;;;;;;;;;5013637;28;93072;-70
2022/03/05 14:13:14;;;;;;;47.42;27.20;;;;;;;;;;5002478;28;94286;-70
2022/03/05 14:15:40;;;;;;;43.17;23.08;;;;;;;;;;4984390;28;94807;-70
2022/03/05 14:18:07;;;;;;;53.50;28.45;;;;;;;;;;4992912;28;92402;-70
2022/03/05 14:20:44;;;;;;;42.88;26.80;;;;;;;;;;4994335;28;92786;-69